createdAt,value
2023-11-18T00:00:18.564Z,4.07
2023-11-18T00:02:47.538Z,4.03
2023-11-18T00:05:15.131Z,4.03
2023-11-18T00:07:43.214Z,4.10
2023-11-18T00:10:11.623Z,4.13
2023-11-18T00:12:42.894Z,4.10
2023-11-18T00:15:12.364Z,4.11
2023-11-18T00:17:40.189Z,4.10
2023-11-18T00:20:13.348Z,4.08
2023-11-18T00:22:42.467Z,4.12
2023-11-18T00:25:10.248Z,4.17
2023-11-18T00:27:38.024Z,4.07
2023-11-18T00:30:07.663Z,4.10
2023-11-18T00:32:36.455Z,4.10
2023-11-18T00:35:05.944Z,4.15
2023-11-18T00:37:34.422Z,4.06
2023-11-18T00:40:02.082Z,4.09
2023-11-18T00:42:29.957Z,4.11
2023-11-18T00:44:58.450Z,4.11
2023-11-18T00:47:25.950Z,4.13
2023-11-18T00:49:54.300Z,4.13
2023-11-18T00:52:22.100Z,4.15
2023-11-18T00:54:49.523Z,4.12
2023-11-18T00:57:18.091Z,4.08
2023-11-18T00:59:45.934Z,4.11
2023-11-18T01:02:14.596Z,4.04
2023-11-18T01:04:42.441Z,4.11
2023-11-18T01:07:10.358Z,4.10
2023-11-18T01:09:40.133Z,4.12
2023-11-18T01:12:11.170Z,4.11
2023-11-18T01:14:40.837Z,4.09
2023-11-18T01:17:10.245Z,4.05
2023-11-18T01:19:37.797Z,4.02
2023-11-18T01:22:08.133Z,4.04
2023-11-18T01:24:36.309Z,3.97
2023-11-18T01:27:04.049Z,3.98
2023-11-18T01:29:32.267Z,4.00
2023-11-18T01:32:00.040Z,3.94
2023-11-18T01:34:29.219Z,3.92
2023-11-18T01:36:58.277Z,3.93
2023-11-18T01:39:27.649Z,3.92
2023-11-18T01:41:56.551Z,3.94
2023-11-18T01:44:25.249Z,3.89
2023-11-18T01:46:52.931Z,3.90
2023-11-18T01:49:21.551Z,3.94
2023-11-18T01:51:52.385Z,3.91
2023-11-18T01:54:21.128Z,3.87
2023-11-18T01:56:50.447Z,3.80
2023-11-18T01:59:20.886Z,3.80
2023-11-18T02:01:52.624Z,3.75
2023-11-18T02:04:21.644Z,3.74
2023-11-18T02:06:50.760Z,3.80
2023-11-18T02:09:19.487Z,3.81
2023-11-18T02:11:55.488Z,3.79
2023-11-18T02:14:27.701Z,3.77
2023-11-18T02:16:57.459Z,3.69
2023-11-18T02:19:25.805Z,3.75
2023-11-18T02:21:55.233Z,3.71
2023-11-18T02:24:31.994Z,3.71
2023-11-18T02:27:00.454Z,3.64
2023-11-18T02:29:31.243Z,3.66
2023-11-18T02:32:02.829Z,3.63
2023-11-18T02:34:32.991Z,3.59
2023-11-18T02:37:04.116Z,3.53
2023-11-18T02:39:42.052Z,3.55
2023-11-18T02:42:10.896Z,3.51
2023-11-18T02:44:39.222Z,3.53
2023-11-18T02:47:06.975Z,3.46
2023-11-18T02:49:38.619Z,3.55
2023-11-18T02:52:06.344Z,3.52
2023-11-18T02:54:33.820Z,3.53
2023-11-18T02:57:01.642Z,3.50
2023-11-18T02:59:32.086Z,3.42
2023-11-18T03:01:59.759Z,3.44
2023-11-18T03:04:27.526Z,3.45
2023-11-18T03:06:55.063Z,3.55
2023-11-18T03:09:22.556Z,3.41
2023-11-18T03:11:52.501Z,3.43
2023-11-18T03:14:20.592Z,3.42
2023-11-18T03:16:48.114Z,3.35
2023-11-18T03:19:15.910Z,3.23
2023-11-18T03:21:44.297Z,3.23
2023-11-18T03:24:11.778Z,3.28
2023-11-18T03:26:39.505Z,3.22
2023-11-18T03:29:06.977Z,3.22
2023-11-18T03:31:34.602Z,3.25
2023-11-18T03:34:02.374Z,3.17
2023-11-18T03:36:29.834Z,3.16
2023-11-18T03:38:57.314Z,3.20
2023-11-18T03:41:25.091Z,3.16
2023-11-18T03:43:52.598Z,3.17
2023-11-18T03:46:20.070Z,3.14
2023-11-18T03:48:47.727Z,3.14
2023-11-18T03:51:17.992Z,3.06
2023-11-18T03:53:46.558Z,3.08
2023-11-18T03:56:19.480Z,3.14
2023-11-18T03:58:49.180Z,3.11
2023-11-18T04:01:29.045Z,3.04
2023-11-18T04:03:57.208Z,3.08
2023-11-18T04:06:25.695Z,3.16
2023-11-18T04:08:53.491Z,3.09
2023-11-18T04:11:21.291Z,3.08
2023-11-18T04:13:49.004Z,3.12
2023-11-18T04:16:17.357Z,3.15
2023-11-18T04:18:45.813Z,3.15
2023-11-18T04:21:14.516Z,3.18
2023-11-18T04:23:43.797Z,3.09
2023-11-18T04:26:11.923Z,3.09
2023-11-18T04:28:39.512Z,3.04
2023-11-18T04:31:07.012Z,3.10
2023-11-18T04:33:34.794Z,3.06
2023-11-18T04:36:02.571Z,3.07
2023-11-18T04:38:30.964Z,3.01
2023-11-18T04:40:58.973Z,3.11
2023-11-18T04:43:34.914Z,3.07
2023-11-18T04:46:10.376Z,3.00
2023-11-18T04:48:40.769Z,2.99
2023-11-18T04:51:10.256Z,3.07
2023-11-18T04:53:37.748Z,3.08
2023-11-18T04:56:05.624Z,3.15
2023-11-18T04:58:33.477Z,3.17
2023-11-18T05:01:01.028Z,3.13
2023-11-18T05:03:28.545Z,3.16
2023-11-18T05:05:58.389Z,3.20
2023-11-18T05:08:26.821Z,3.20
2023-11-18T05:10:55.552Z,3.16
2023-11-18T05:13:23.537Z,3.15
2023-11-18T05:15:51.290Z,3.11
2023-11-18T05:18:19.080Z,3.22
2023-11-18T05:20:47.638Z,3.22
2023-11-18T05:23:15.198Z,3.35
2023-11-18T05:25:44.531Z,3.31
2023-11-18T05:28:12.587Z,3.25
2023-11-18T05:30:44.138Z,3.25
2023-11-18T05:33:18.295Z,3.29
2023-11-18T05:35:50.419Z,3.29
2023-11-18T05:38:22.604Z,3.29
2023-11-18T05:40:57.825Z,3.27
2023-11-18T05:43:30.425Z,3.30
2023-11-18T05:46:21.871Z,3.36
2023-11-18T05:48:50.750Z,3.38
2023-11-18T05:51:25.242Z,3.33
2023-11-18T05:53:53.501Z,3.26
2023-11-18T05:56:23.956Z,3.36
2023-11-18T05:58:54.714Z,3.28
2023-11-18T06:01:23.342Z,3.33
2023-11-18T06:03:51.349Z,3.37
2023-11-18T06:06:22.282Z,3.29
2023-11-18T06:08:52.875Z,3.29
2023-11-18T06:11:20.990Z,3.31
2023-11-18T06:13:52.651Z,3.29
2023-11-18T06:16:25.582Z,3.32
2023-11-18T06:18:57.920Z,3.31
2023-11-18T06:21:31.217Z,3.28
2023-11-18T06:24:02.190Z,3.31
2023-11-18T06:26:30.131Z,3.39
2023-11-18T06:28:57.803Z,3.42
2023-11-18T06:31:25.749Z,3.39
2023-11-18T06:33:54.366Z,3.33
2023-11-18T06:36:22.938Z,3.39
2023-11-18T06:38:52.098Z,3.50
2023-11-18T06:41:24.252Z,3.54
2023-11-18T06:43:53.277Z,3.53
2023-11-18T06:46:23.282Z,3.58
2023-11-18T06:48:51.155Z,3.69
2023-11-18T06:51:18.671Z,3.74
2023-11-18T06:53:46.507Z,3.76
2023-11-18T06:56:14.014Z,3.79
2023-11-18T06:58:42.157Z,3.84
2023-11-18T07:01:16.891Z,3.82
2023-11-18T07:03:49.763Z,3.91
2023-11-18T07:06:23.132Z,3.97
2023-11-18T07:08:51.056Z,4.00
2023-11-18T07:11:19.345Z,4.08
2023-11-18T07:13:47.646Z,4.09
2023-11-18T07:16:15.776Z,4.15
2023-11-18T07:18:43.986Z,4.19
2023-11-18T07:21:11.918Z,4.27
2023-11-18T07:23:39.476Z,4.30
2023-11-18T07:26:07.294Z,4.34
2023-11-18T07:28:34.731Z,4.34
2023-11-18T07:31:06.046Z,4.38
2023-11-18T07:33:33.993Z,4.43
2023-11-18T07:36:03.028Z,4.46
2023-11-18T07:38:32.124Z,4.47
2023-11-18T07:41:00.976Z,4.47
2023-11-18T07:43:29.998Z,4.54
2023-11-18T07:45:57.649Z,4.58
2023-11-18T07:48:25.453Z,4.59
2023-11-18T07:50:52.880Z,4.62
2023-11-18T07:53:20.403Z,4.64
2023-11-18T07:55:48.996Z,4.72
2023-11-18T07:58:19.222Z,4.71
2023-11-18T08:00:46.601Z,4.78
2023-11-18T08:03:15.670Z,4.75
2023-11-18T08:05:46.076Z,4.85
2023-11-18T08:08:15.027Z,4.89
2023-11-18T08:10:43.603Z,4.93
2023-11-18T08:13:12.123Z,4.99
2023-11-18T08:15:41.209Z,5.10
2023-11-18T08:18:11.430Z,5.08
2023-11-18T08:20:39.096Z,5.11
2023-11-18T08:23:06.972Z,5.16
2023-11-18T08:25:36.725Z,5.16
2023-11-18T08:28:05.034Z,5.22
2023-11-18T08:30:35.033Z,5.31
2023-11-18T08:33:06.631Z,5.38
2023-11-18T08:35:34.672Z,5.44
2023-11-18T08:38:03.056Z,5.36
2023-11-18T08:40:30.820Z,5.42
2023-11-18T08:42:59.236Z,5.52
2023-11-18T08:45:30.465Z,5.52
2023-11-18T08:47:58.652Z,5.54
2023-11-18T08:50:27.140Z,5.63
2023-11-18T08:52:59.328Z,5.57
2023-11-18T08:55:43.631Z,5.69
2023-11-18T08:58:29.551Z,5.69
2023-11-18T09:01:15.171Z,5.74
2023-11-18T09:03:53.275Z,5.79
2023-11-18T09:06:30.381Z,5.78
2023-11-18T09:08:58.942Z,5.75
2023-11-18T09:11:33.986Z,5.81
2023-11-18T09:14:02.722Z,5.93
2023-11-18T09:16:31.261Z,5.98
2023-11-18T09:19:04.238Z,5.96
2023-11-18T09:21:36.652Z,6.00
2023-11-18T09:24:09.134Z,6.10
2023-11-18T09:26:36.949Z,6.09
2023-11-18T09:29:04.616Z,6.08
2023-11-18T09:31:34.577Z,6.07
2023-11-18T09:34:07.309Z,6.18
2023-11-18T09:36:35.006Z,6.30
2023-11-18T09:39:04.606Z,6.34
2023-11-18T09:41:34.656Z,6.36
2023-11-18T09:44:03.603Z,6.45
2023-11-18T09:46:34.817Z,6.46
2023-11-18T09:49:26.789Z,6.38
2023-11-18T09:51:58.848Z,6.45
2023-11-18T09:55:04.402Z,6.46
2023-11-18T09:57:35.727Z,6.53
2023-11-18T10:00:24.120Z,6.47
2023-11-18T10:02:52.894Z,6.57
2023-11-18T10:05:28.070Z,6.62
2023-11-18T10:07:56.412Z,6.56
2023-11-18T10:10:25.892Z,6.72
2023-11-18T10:12:53.778Z,6.92
2023-11-18T10:15:26.632Z,6.95
2023-11-18T10:18:23.520Z,6.87
2023-11-18T10:20:52.436Z,6.80
2023-11-18T10:23:22.228Z,6.92
2023-11-18T10:25:59.615Z,7.02
2023-11-18T10:28:29.387Z,6.87
2023-11-18T10:30:59.034Z,6.80
2023-11-18T10:33:31.651Z,6.94
2023-11-18T10:36:04.205Z,6.87
2023-11-18T10:38:33.191Z,6.95
2023-11-18T10:41:04.120Z,6.89
2023-11-18T10:43:32.022Z,7.02
2023-11-18T10:46:16.143Z,7.02
2023-11-18T10:48:49.070Z,7.08
2023-11-18T10:51:20.258Z,6.99
2023-11-18T10:53:54.980Z,7.26
2023-11-18T10:56:28.156Z,7.10
2023-11-18T10:59:00.591Z,7.11
2023-11-18T11:01:40.099Z,6.98
2023-11-18T11:04:07.888Z,6.98
2023-11-18T11:06:35.930Z,6.94
2023-11-18T11:09:10.858Z,6.82
2023-11-18T11:11:41.381Z,6.83
2023-11-18T11:14:09.294Z,6.68
2023-11-18T11:16:48.485Z,6.62
2023-11-18T11:19:45.828Z,6.64
2023-11-18T11:22:22.132Z,6.64
2023-11-18T11:25:10.842Z,6.76
2023-11-18T11:28:02.983Z,6.84
2023-11-18T11:30:39.073Z,6.92
2023-11-18T11:33:18.092Z,6.91
2023-11-18T11:35:50.210Z,6.98
2023-11-18T11:38:18.058Z,7.03
2023-11-18T11:40:47.407Z,7.10
2023-11-18T11:43:22.304Z,7.13
2023-11-18T11:45:53.081Z,7.04
2023-11-18T11:48:27.716Z,7.12
2023-11-18T11:51:02.740Z,7.07
2023-11-18T11:53:34.061Z,7.12
2023-11-18T11:56:13.449Z,7.13
2023-11-18T11:58:44.629Z,7.11
2023-11-18T12:01:26.624Z,6.98
2023-11-18T12:03:59.509Z,6.96
2023-11-18T12:06:28.060Z,6.99
2023-11-18T12:08:56.377Z,7.00
2023-11-18T12:11:24.082Z,6.96
2023-11-18T12:14:21.193Z,6.98
2023-11-18T12:17:02.414Z,6.98
2023-11-18T12:19:34.052Z,6.98
2023-11-18T12:22:02.180Z,6.97
2023-11-18T12:24:30.602Z,6.98
2023-11-18T12:26:58.024Z,6.98
2023-11-18T12:29:33.779Z,6.93
2023-11-18T12:32:02.952Z,6.89
2023-11-18T12:34:56.193Z,6.87
2023-11-18T12:37:43.267Z,6.89
2023-11-18T12:40:51.534Z,6.90
2023-11-18T12:43:25.539Z,6.89
2023-11-18T12:46:22.052Z,6.91
2023-11-18T12:48:50.452Z,6.94
2023-11-18T12:51:21.578Z,6.94
2023-11-18T12:53:54.362Z,6.94
2023-11-18T12:56:24.503Z,6.92
2023-11-18T12:58:52.577Z,6.92
2023-11-18T13:01:20.462Z,6.90
2023-11-18T13:03:48.619Z,6.91
2023-11-18T13:06:16.397Z,6.92
2023-11-18T13:08:44.145Z,6.89
2023-11-18T13:11:17.375Z,6.88
2023-11-18T13:13:45.082Z,6.82
2023-11-18T13:16:15.923Z,6.80
2023-11-18T13:18:45.622Z,6.80
2023-11-18T13:21:16.256Z,6.80
2023-11-18T13:23:48.345Z,6.78
2023-11-18T13:26:17.046Z,6.74
2023-11-18T13:28:44.845Z,6.75
2023-11-18T13:31:12.397Z,6.74
2023-11-18T13:33:40.525Z,6.78
2023-11-18T13:36:11.225Z,6.85
2023-11-18T13:38:39.011Z,6.83
2023-11-18T13:41:09.688Z,6.80
2023-11-18T13:43:43.270Z,6.77
2023-11-18T13:46:19.807Z,6.74
2023-11-18T13:48:50.477Z,6.72
2023-11-18T13:51:20.562Z,6.79
2023-11-18T13:53:48.399Z,6.78
2023-11-18T13:56:16.646Z,6.74
2023-11-18T13:58:46.658Z,6.71
2023-11-18T14:01:14.229Z,6.70
2023-11-18T14:03:44.017Z,6.65
2023-11-18T14:06:12.039Z,6.71
2023-11-18T14:08:40.125Z,6.71
2023-11-18T14:11:15.299Z,6.69
2023-11-18T14:13:45.759Z,6.70
2023-11-18T14:16:14.374Z,6.65
2023-11-18T14:18:44.757Z,6.62
2023-11-18T14:21:15.229Z,6.60
2023-11-18T14:23:43.085Z,6.58
2023-11-18T14:26:10.722Z,6.56
2023-11-18T14:28:38.785Z,6.50
2023-11-18T14:31:08.979Z,6.53
2023-11-18T14:33:36.558Z,6.50
2023-11-18T14:36:06.519Z,6.50
2023-11-18T14:38:35.559Z,6.52
2023-11-18T14:41:04.416Z,6.51
2023-11-18T14:43:32.930Z,6.50
2023-11-18T14:46:01.374Z,6.49
2023-11-18T14:48:29.485Z,6.48
2023-11-18T14:51:01.217Z,6.46
2023-11-18T14:53:28.978Z,6.50
2023-11-18T14:55:56.464Z,6.49
2023-11-18T14:58:23.999Z,6.51
2023-11-18T15:00:51.698Z,6.52
2023-11-18T15:03:19.284Z,6.50
2023-11-18T15:05:46.899Z,6.47
2023-11-18T15:08:14.711Z,6.48
2023-11-18T15:10:43.389Z,6.51
2023-11-18T15:13:16.607Z,6.48
2023-11-18T15:15:50.594Z,6.41
2023-11-18T15:18:19.273Z,6.40
2023-11-18T15:20:48.626Z,6.41
2023-11-18T15:23:23.140Z,6.37
2023-11-18T15:25:51.401Z,6.31
2023-11-18T15:28:20.048Z,6.28
2023-11-18T15:30:47.693Z,6.17
2023-11-18T15:33:16.344Z,6.16
2023-11-18T15:35:44.120Z,6.19
2023-11-18T15:38:18.643Z,6.16
2023-11-18T15:40:51.013Z,6.09
2023-11-18T15:43:18.559Z,6.07
2023-11-18T15:45:45.970Z,6.04
2023-11-18T15:48:15.646Z,6.00
2023-11-18T15:50:43.378Z,5.96
2023-11-18T15:53:15.342Z,5.96
2023-11-18T15:55:48.147Z,5.94
2023-11-18T15:58:15.850Z,5.90
2023-11-18T16:00:44.437Z,5.87
2023-11-18T16:03:12.217Z,5.79
2023-11-18T16:05:41.129Z,5.79
2023-11-18T16:08:09.072Z,5.72
2023-11-18T16:10:38.704Z,5.58
2023-11-18T16:13:06.349Z,5.65
2023-11-18T16:15:34.131Z,5.57
2023-11-18T16:18:02.446Z,5.58
2023-11-18T16:20:35.363Z,5.54
2023-11-18T16:23:04.534Z,5.45
2023-11-18T16:25:35.095Z,5.39
2023-11-18T16:28:03.713Z,5.32
2023-11-18T16:30:32.285Z,5.37
2023-11-18T16:33:05.225Z,5.34
2023-11-18T16:35:33.518Z,5.31
2023-11-18T16:38:01.848Z,5.17
2023-11-18T16:40:30.447Z,5.17
2023-11-18T16:43:00.928Z,5.08
2023-11-18T16:45:29.430Z,4.98
2023-11-18T16:47:57.065Z,4.93
2023-11-18T16:50:26.002Z,4.98
2023-11-18T16:52:54.971Z,4.97
2023-11-18T16:55:23.021Z,4.85
2023-11-18T16:57:54.148Z,4.86
2023-11-18T17:00:26.536Z,4.86
2023-11-18T17:02:58.061Z,4.79
2023-11-18T17:05:30.170Z,4.76
2023-11-18T17:07:58.365Z,4.70
2023-11-18T17:10:25.816Z,4.64
2023-11-18T17:12:53.633Z,4.63
2023-11-18T17:15:21.506Z,4.66
2023-11-18T17:17:54.855Z,4.59
2023-11-18T17:20:23.015Z,4.76
2023-11-18T17:22:50.565Z,4.63
2023-11-18T17:25:18.811Z,4.59
2023-11-18T17:27:47.534Z,4.63
2023-11-18T17:30:17.629Z,4.62
2023-11-18T17:32:47.099Z,4.54
2023-11-18T17:35:16.439Z,4.44
2023-11-18T17:37:45.667Z,4.47
2023-11-18T17:40:16.922Z,4.43
2023-11-18T17:42:45.880Z,4.42
2023-11-18T17:45:14.570Z,4.44
2023-11-18T17:47:44.174Z,4.31
2023-11-18T17:50:15.277Z,4.34
2023-11-18T17:52:51.291Z,4.41
2023-11-18T17:55:19.384Z,4.34
2023-11-18T17:57:48.036Z,4.27
2023-11-18T18:00:24.432Z,4.27
2023-11-18T18:02:53.873Z,4.20
2023-11-18T18:05:24.531Z,4.18
2023-11-18T18:07:53.175Z,4.21
2023-11-18T18:10:23.619Z,4.21
2023-11-18T18:12:52.182Z,4.17
2023-11-18T18:15:20.349Z,4.19
2023-11-18T18:17:51.042Z,4.14
2023-11-18T18:20:21.306Z,4.13
2023-11-18T18:22:49.261Z,4.07
2023-11-18T18:25:17.079Z,4.08
2023-11-18T18:27:44.601Z,4.06
2023-11-18T18:30:13.919Z,3.99
2023-11-18T18:32:41.579Z,3.97
2023-11-18T18:35:09.520Z,4.00
2023-11-18T18:37:37.550Z,3.87
2023-11-18T18:40:05.968Z,3.88
2023-11-18T18:42:33.566Z,3.93
2023-11-18T18:45:01.760Z,3.90
2023-11-18T18:47:30.864Z,3.84
2023-11-18T18:49:59.223Z,3.82
2023-11-18T18:52:27.667Z,3.81
2023-11-18T18:54:55.227Z,3.74
2023-11-18T18:57:23.018Z,3.79
2023-11-18T18:59:51.862Z,3.78
2023-11-18T19:02:19.426Z,3.82
2023-11-18T19:04:48.313Z,3.88
2023-11-18T19:07:19.370Z,3.76
2023-11-18T19:09:47.002Z,3.68
2023-11-18T19:12:14.563Z,3.71
2023-11-18T19:14:42.709Z,3.65
2023-11-18T19:17:10.643Z,3.64
2023-11-18T19:19:38.314Z,3.53
2023-11-18T19:22:07.428Z,3.50
2023-11-18T19:24:35.525Z,3.55
2023-11-18T19:27:03.176Z,3.46
2023-11-18T19:29:31.236Z,3.41
2023-11-18T19:31:59.320Z,3.41
2023-11-18T19:34:27.196Z,3.35
2023-11-18T19:36:55.339Z,3.27
2023-11-18T19:39:23.081Z,3.21
2023-11-18T19:41:51.229Z,3.28
2023-11-18T19:44:19.025Z,3.29
2023-11-18T19:46:51.407Z,3.20
2023-11-18T19:49:19.986Z,3.16
2023-11-18T19:51:47.804Z,3.13
2023-11-18T19:54:15.695Z,3.12
2023-11-18T19:56:43.872Z,3.09
2023-11-18T19:59:11.487Z,3.04
2023-11-18T20:01:39.315Z,3.06
2023-11-18T20:04:07.499Z,2.96
2023-11-18T20:06:35.885Z,3.00
2023-11-18T20:09:04.058Z,2.98
2023-11-18T20:11:32.376Z,3.02
2023-11-18T20:14:00.977Z,2.95
2023-11-18T20:16:29.824Z,2.90
2023-11-18T20:18:57.957Z,2.89
2023-11-18T20:21:25.900Z,2.85
2023-11-18T20:23:53.291Z,2.85
2023-11-18T20:26:22.452Z,2.75
2023-11-18T20:28:50.259Z,2.76
2023-11-18T20:31:17.952Z,2.76
2023-11-18T20:33:45.721Z,2.78
2023-11-18T20:36:13.186Z,2.68
2023-11-18T20:38:40.978Z,2.73
2023-11-18T20:41:09.138Z,2.67
2023-11-18T20:43:36.636Z,2.61
2023-11-18T20:46:04.732Z,2.59
2023-11-18T20:48:33.122Z,2.61
2023-11-18T20:51:01.936Z,2.57
2023-11-18T20:53:30.219Z,2.54
2023-11-18T20:55:58.282Z,2.50
2023-11-18T20:58:26.922Z,2.47
2023-11-18T21:00:54.547Z,2.46
2023-11-18T21:03:22.827Z,2.31
2023-11-18T21:05:51.086Z,2.26
2023-11-18T21:08:18.836Z,2.23
2023-11-18T21:10:49.826Z,2.23
2023-11-18T21:13:17.766Z,2.22
2023-11-18T21:15:45.524Z,2.26
2023-11-18T21:18:13.648Z,2.35
2023-11-18T21:20:41.196Z,2.31
2023-11-18T21:23:09.292Z,2.25
2023-11-18T21:25:37.463Z,2.31
2023-11-18T21:28:05.718Z,2.33
2023-11-18T21:30:34.010Z,2.39
2023-11-18T21:33:05.720Z,2.40
2023-11-18T21:35:33.822Z,2.46
2023-11-18T21:38:01.711Z,2.55
2023-11-18T21:40:30.232Z,2.58
2023-11-18T21:42:58.959Z,2.61
2023-11-18T21:45:29.088Z,2.62
2023-11-18T21:48:00.865Z,2.66
2023-11-18T21:50:29.200Z,2.66
2023-11-18T21:52:56.941Z,2.72
2023-11-18T21:55:24.986Z,2.72
2023-11-18T21:57:52.779Z,2.70
2023-11-18T22:00:20.772Z,2.76
2023-11-18T22:02:51.797Z,2.77
2023-11-18T22:05:19.665Z,2.79
2023-11-18T22:07:47.800Z,2.76
2023-11-18T22:10:20.088Z,2.81
2023-11-18T22:12:48.153Z,2.78
2023-11-18T22:15:17.676Z,2.83
2023-11-18T22:17:46.428Z,2.84
2023-11-18T22:20:15.995Z,2.86
2023-11-18T22:22:44.011Z,2.87
2023-11-18T22:25:14.094Z,2.89
2023-11-18T22:27:41.878Z,2.89
2023-11-18T22:30:13.349Z,2.88
2023-11-18T22:32:41.600Z,2.90
2023-11-18T22:35:09.675Z,2.93
2023-11-18T22:37:37.463Z,2.91
2023-11-18T22:40:10.875Z,2.94
2023-11-18T22:42:40.753Z,2.96
2023-11-18T22:45:18.348Z,3.00
2023-11-18T22:47:51.573Z,2.97
2023-11-18T22:50:22.544Z,3.01
2023-11-18T22:52:51.279Z,3.01
2023-11-18T22:55:20.523Z,2.97
2023-11-18T22:57:48.090Z,2.99
2023-11-18T23:00:34.802Z,2.99
2023-11-18T23:03:03.438Z,2.98
2023-11-18T23:05:33.123Z,2.95
2023-11-18T23:08:00.671Z,2.97
2023-11-18T23:10:28.095Z,2.95
2023-11-18T23:12:56.260Z,2.95
2023-11-18T23:15:25.713Z,2.77
2023-11-18T23:17:53.951Z,2.73
2023-11-18T23:20:22.680Z,2.63
2023-11-18T23:22:51.980Z,2.64
2023-11-18T23:25:24.327Z,2.61
2023-11-18T23:30:26.449Z,2.48
2023-11-18T23:32:54.317Z,2.47
2023-11-18T23:35:22.223Z,2.39
2023-11-18T23:37:52.896Z,2.34
2023-11-18T23:40:21.417Z,2.26
2023-11-18T23:42:49.394Z,2.21
2023-11-18T23:45:19.855Z,2.18
2023-11-18T23:47:51.973Z,2.07
2023-11-18T23:50:21.011Z,2.07
2023-11-18T23:52:48.973Z,1.97
2023-11-18T23:55:16.743Z,1.97
2023-11-18T23:57:44.981Z,1.92
